sensor_id;sensor_type;location;lat;lon;timestamp;pressure;altitude;pressure_sealevel;temperature;humidity
63552;BME280;49698;48.072;7.800;2023-04-28T00:02:17;99177.13;;;13.65;75.42
63552;BME280;49698;48.072;7.800;2023-04-28T00:04:45;99166.84;;;13.67;75.44
63552;BME280;49698;48.072;7.800;2023-04-28T00:07:13;99168.06;;;13.61;76.01
63552;BME280;49698;48.072;7.800;2023-04-28T00:09:40;99164.53;;;13.52;76.63
63552;BME280;49698;48.072;7.800;2023-04-28T00:12:10;99166.84;;;13.44;76.90
63552;BME280;49698;48.072;7.800;2023-04-28T00:14:38;99164.75;;;13.41;76.92
63552;BME280;49698;48.072;7.800;2023-04-28T00:17:06;99162.53;;;13.43;76.90
63552;BME280;49698;48.072;7.800;2023-04-28T00:19:35;99164.94;;;13.45;76.77
63552;BME280;49698;48.072;7.800;2023-04-28T00:22:04;99154.94;;;13.45;76.81
63552;BME280;49698;48.072;7.800;2023-04-28T00:24:32;99145.53;;;13.43;76.76
63552;BME280;49698;48.072;7.800;2023-04-28T00:27:02;99137.25;;;13.39;77.20
63552;BME280;49698;48.072;7.800;2023-04-28T00:29:31;99140.59;;;13.36;77.51
63552;BME280;49698;48.072;7.800;2023-04-28T00:31:59;99147.59;;;13.37;77.69
63552;BME280;49698;48.072;7.800;2023-04-28T00:34:27;99149.16;;;13.38;77.74
63552;BME280;49698;48.072;7.800;2023-04-28T00:36:56;99135.19;;;13.36;77.93
63552;BME280;49698;48.072;7.800;2023-04-28T00:39:24;99138.19;;;13.35;78.01
63552;BME280;49698;48.072;7.800;2023-04-28T00:41:53;99140.59;;;13.36;77.99
63552;BME280;49698;48.072;7.800;2023-04-28T00:44:21;99142.19;;;13.37;78.09
63552;BME280;49698;48.072;7.800;2023-04-28T00:46:51;99138.19;;;13.35;78.24
63552;BME280;49698;48.072;7.800;2023-04-28T00:49:20;99133.38;;;13.32;78.23
63552;BME280;49698;48.072;7.800;2023-04-28T00:51:47;99145.44;;;13.26;78.74
63552;BME280;49698;48.072;7.800;2023-04-28T00:54:15;99150.63;;;13.22;79.10
63552;BME280;49698;48.072;7.800;2023-04-28T00:56:44;99152.22;;;13.23;79.32
63552;BME280;49698;48.072;7.800;2023-04-28T00:59:12;99151.63;;;13.26;79.15
63552;BME280;49698;48.072;7.800;2023-04-28T01:01:40;99155.44;;;13.25;79.14
63552;BME280;49698;48.072;7.800;2023-04-28T01:04:09;99161.63;;;13.26;79.25
63552;BME280;49698;48.072;7.800;2023-04-28T01:06:40;99153.81;;;13.24;79.17
63552;BME280;49698;48.072;7.800;2023-04-28T01:09:09;99156.81;;;13.22;79.34
63552;BME280;49698;48.072;7.800;2023-04-28T01:11:37;99151.72;;;13.21;79.56
63552;BME280;49698;48.072;7.800;2023-04-28T01:14:16;99173.31;;;13.21;79.79
63552;BME280;49698;48.072;7.800;2023-04-28T01:16:45;99170.63;;;13.21;79.70
63552;BME280;49698;48.072;7.800;2023-04-28T01:19:19;99188.41;;;13.22;79.69
63552;BME280;49698;48.072;7.800;2023-04-28T01:21:48;99180.81;;;13.24;79.76
63552;BME280;49698;48.072;7.800;2023-04-28T01:24:21;99187.50;;;13.27;79.73
63552;BME280;49698;48.072;7.800;2023-04-28T01:26:49;99188.91;;;13.24;80.32
63552;BME280;49698;48.072;7.800;2023-04-28T01:29:17;99199.50;;;13.20;80.91
63552;BME280;49698;48.072;7.800;2023-04-28T01:31:45;99189.00;;;13.19;81.01
63552;BME280;49698;48.072;7.800;2023-04-28T01:34:13;99197.09;;;13.19;81.03
63552;BME280;49698;48.072;7.800;2023-04-28T01:36:41;99190.59;;;13.20;81.10
63552;BME280;49698;48.072;7.800;2023-04-28T01:39:09;99193.13;;;13.16;81.38
63552;BME280;49698;48.072;7.800;2023-04-28T01:41:41;99190.84;;;13.10;81.87
63552;BME280;49698;48.072;7.800;2023-04-28T01:44:09;99198.22;;;13.04;82.79
63552;BME280;49698;48.072;7.800;2023-04-28T01:46:38;99210.84;;;12.95;83.85
63552;BME280;49698;48.072;7.800;2023-04-28T01:49:06;99212.25;;;12.92;84.04
63552;BME280;49698;48.072;7.800;2023-04-28T01:51:34;99218.44;;;12.93;84.43
63552;BME280;49698;48.072;7.800;2023-04-28T01:54:03;99217.03;;;12.95;84.52
63552;BME280;49698;48.072;7.800;2023-04-28T01:56:31;99216.56;;;12.93;84.88
63552;BME280;49698;48.072;7.800;2023-04-28T01:59:01;99219.66;;;12.87;85.68
63552;BME280;49698;48.072;7.800;2023-04-28T02:01:29;99218.47;;;12.79;86.54
63552;BME280;49698;48.072;7.800;2023-04-28T02:03:56;99226.47;;;12.70;87.21
63552;BME280;49698;48.072;7.800;2023-04-28T02:06:24;99225.28;;;12.63;87.75
63552;BME280;49698;48.072;7.800;2023-04-28T02:08:53;99216.47;;;12.57;88.20
63552;BME280;49698;48.072;7.800;2023-04-28T02:11:21;99209.31;;;12.53;88.48
63552;BME280;49698;48.072;7.800;2023-04-28T02:13:53;99217.97;;;12.49;89.04
63552;BME280;49698;48.072;7.800;2023-04-28T02:16:23;99213.19;;;12.46;89.55
63552;BME280;49698;48.072;7.800;2023-04-28T02:18:51;99217.38;;;12.39;89.72
63552;BME280;49698;48.072;7.800;2023-04-28T02:21:18;99215.56;;;12.34;90.05
63552;BME280;49698;48.072;7.800;2023-04-28T02:23:46;99215.09;;;12.32;90.40
63552;BME280;49698;48.072;7.800;2023-04-28T02:26:16;99197.94;;;12.28;90.83
63552;BME280;49698;48.072;7.800;2023-04-28T02:28:43;99199.09;;;12.22;91.53
63552;BME280;49698;48.072;7.800;2023-04-28T02:31:12;99203.50;;;12.18;91.59
63552;BME280;49698;48.072;7.800;2023-04-28T02:33:41;99200.31;;;12.16;92.18
63552;BME280;49698;48.072;7.800;2023-04-28T02:36:09;99202.50;;;12.14;92.68
63552;BME280;49698;48.072;7.800;2023-04-28T02:38:38;99197.91;;;12.14;92.65
63552;BME280;49698;48.072;7.800;2023-04-28T02:41:07;99197.09;;;12.14;92.67
63552;BME280;49698;48.072;7.800;2023-04-28T02:43:36;99187.84;;;12.20;92.65
63552;BME280;49698;48.072;7.800;2023-04-28T02:46:04;99186.72;;;12.21;92.81
63552;BME280;49698;48.072;7.800;2023-04-28T02:48:32;99182.16;;;12.21;92.48
63552;BME280;49698;48.072;7.800;2023-04-28T02:51:03;99182.66;;;12.23;92.81
63552;BME280;49698;48.072;7.800;2023-04-28T02:53:32;99186.16;;;12.24;92.79
63552;BME280;49698;48.072;7.800;2023-04-28T02:56:00;99179.13;;;12.23;93.40
63552;BME280;49698;48.072;7.800;2023-04-28T02:58:31;99177.53;;;12.22;93.74
63552;BME280;49698;48.072;7.800;2023-04-28T03:00:59;99172.75;;;12.19;94.20
63552;BME280;49698;48.072;7.800;2023-04-28T03:03:27;99177.66;;;12.17;94.64
63552;BME280;49698;48.072;7.800;2023-04-28T03:05:55;99171.47;;;12.16;94.79
63552;BME280;49698;48.072;7.800;2023-04-28T03:08:24;99156.91;;;12.17;95.00
63552;BME280;49698;48.072;7.800;2023-04-28T03:10:53;99164.19;;;12.17;95.55
63552;BME280;49698;48.072;7.800;2023-04-28T03:13:21;99170.69;;;12.16;95.65
63552;BME280;49698;48.072;7.800;2023-04-28T03:15:49;99166.09;;;12.16;95.81
63552;BME280;49698;48.072;7.800;2023-04-28T03:18:18;99167.66;;;12.17;96.06
63552;BME280;49698;48.072;7.800;2023-04-28T03:20:45;99170.69;;;12.16;96.23
63552;BME280;49698;48.072;7.800;2023-04-28T03:23:13;99166.09;;;12.16;96.41
63552;BME280;49698;48.072;7.800;2023-04-28T03:25:43;99158.19;;;12.20;96.64
63552;BME280;49698;48.072;7.800;2023-04-28T03:28:11;99152.50;;;12.21;96.74
63552;BME280;49698;48.072;7.800;2023-04-28T03:30:39;99162.97;;;12.23;96.46
63552;BME280;49698;48.072;7.800;2023-04-28T03:33:07;99152.72;;;12.25;96.72
63552;BME280;49698;48.072;7.800;2023-04-28T03:35:34;99149.91;;;12.30;96.58
63552;BME280;49698;48.072;7.800;2023-04-28T03:38:02;99149.81;;;12.35;96.49
63552;BME280;49698;48.072;7.800;2023-04-28T03:40:32;99149.81;;;12.35;96.15
63552;BME280;49698;48.072;7.800;2023-04-28T03:43:11;99154.38;;;12.35;96.50
63552;BME280;49698;48.072;7.800;2023-04-28T03:45:53;99156.78;;;12.36;97.21
63552;BME280;49698;48.072;7.800;2023-04-28T03:48:21;99150.00;;;12.39;97.79
63552;BME280;49698;48.072;7.800;2023-04-28T03:50:49;99147.81;;;12.41;97.64
63552;BME280;49698;48.072;7.800;2023-04-28T03:53:17;99143.22;;;12.41;97.33
63552;BME280;49698;48.072;7.800;2023-04-28T03:55:45;99145.41;;;12.39;97.55
63552;BME280;49698;48.072;7.800;2023-04-28T03:58:14;99140.63;;;12.36;97.79
63552;BME280;49698;48.072;7.800;2023-04-28T04:00:42;99146.00;;;12.36;98.16
63552;BME280;49698;48.072;7.800;2023-04-28T04:03:10;99147.41;;;12.34;98.52
63552;BME280;49698;48.072;7.800;2023-04-28T04:05:38;99152.00;;;12.33;99.11
63552;BME280;49698;48.072;7.800;2023-04-28T04:08:07;99139.84;;;12.36;99.29
63552;BME280;49698;48.072;7.800;2023-04-28T04:10:35;99148.19;;;12.34;99.38
63552;BME280;49698;48.072;7.800;2023-04-28T04:13:03;99137.94;;;12.36;99.83
63552;BME280;49698;48.072;7.800;2023-04-28T04:15:32;99139.53;;;12.37;100.00
63552;BME280;49698;48.072;7.800;2023-04-28T04:18:00;99137.34;;;12.39;100.00
63552;BME280;49698;48.072;7.800;2023-04-28T04:20:39;99131.44;;;12.37;100.00
63552;BME280;49698;48.072;7.800;2023-04-28T04:23:07;99130.31;;;12.38;100.00
63552;BME280;49698;48.072;7.800;2023-04-28T04:25:35;99136.22;;;12.40;100.00
63552;BME280;49698;48.072;7.800;2023-04-28T04:28:03;99140.22;;;12.43;100.00
63552;BME280;49698;48.072;7.800;2023-04-28T04:30:32;99138.81;;;12.45;100.00
63552;BME280;49698;48.072;7.800;2023-04-28T04:33:00;99131.81;;;12.44;100.00
63552;BME280;49698;48.072;7.800;2023-04-28T04:35:28;99142.81;;;12.48;100.00
63552;BME280;49698;48.072;7.800;2023-04-28T04:37:57;99143.59;;;12.48;100.00
63552;BME280;49698;48.072;7.800;2023-04-28T04:40:25;99142.00;;;12.47;100.00
63552;BME280;49698;48.072;7.800;2023-04-28T04:42:54;99136.63;;;12.47;100.00
63552;BME280;49698;48.072;7.800;2023-04-28T04:45:25;99139.00;;;12.49;100.00
63552;BME280;49698;48.072;7.800;2023-04-28T04:47:56;99146.31;;;12.48;100.00
63552;BME280;49698;48.072;7.800;2023-04-28T04:50:24;99129.03;;;12.49;100.00
63552;BME280;49698;48.072;7.800;2023-04-28T04:52:53;99136.81;;;12.51;100.00
63552;BME280;49698;48.072;7.800;2023-04-28T04:55:23;99132.22;;;12.52;100.00
63552;BME280;49698;48.072;7.800;2023-04-28T04:57:51;99139.19;;;12.53;100.00
63552;BME280;49698;48.072;7.800;2023-04-28T05:00:39;99132.09;;;12.57;100.00
63552;BME280;49698;48.072;7.800;2023-04-28T05:03:10;99132.81;;;12.62;100.00
63552;BME280;49698;48.072;7.800;2023-04-28T05:05:39;99132.97;;;12.66;100.00
63552;BME280;49698;48.072;7.800;2023-04-28T05:08:16;99130.78;;;12.68;100.00
63552;BME280;49698;48.072;7.800;2023-04-28T05:10:44;99124.47;;;12.72;100.00
63552;BME280;49698;48.072;7.800;2023-04-28T05:13:13;99123.09;;;12.75;100.00
63552;BME280;49698;48.072;7.800;2023-04-28T05:15:41;99126.16;;;12.82;100.00
63552;BME280;49698;48.072;7.800;2023-04-28T05:18:37;99126.56;;;12.89;100.00
63552;BME280;49698;48.072;7.800;2023-04-28T05:21:05;99130.72;;;12.95;100.00
63552;BME280;49698;48.072;7.800;2023-04-28T05:23:33;99131.09;;;13.03;100.00
63552;BME280;49698;48.072;7.800;2023-04-28T05:26:01;99139.25;;;13.11;100.00
63552;BME280;49698;48.072;7.800;2023-04-28T05:28:30;99137.44;;;13.20;100.00
63552;BME280;49698;48.072;7.800;2023-04-28T05:31:00;99141.63;;;13.27;100.00
63552;BME280;49698;48.072;7.800;2023-04-28T05:33:30;99139.63;;;13.32;100.00
63552;BME280;49698;48.072;7.800;2023-04-28T05:35:59;99130.59;;;13.37;100.00
63552;BME280;49698;48.072;7.800;2023-04-28T05:38:27;99138.56;;;13.42;100.00
63552;BME280;49698;48.072;7.800;2023-04-28T05:40:57;99143.81;;;13.47;100.00
63552;BME280;49698;48.072;7.800;2023-04-28T05:43:27;99138.59;;;13.51;100.00
63552;BME280;49698;48.072;7.800;2023-04-28T05:45:55;99128.78;;;13.55;100.00
63552;BME280;49698;48.072;7.800;2023-04-28T05:48:23;99132.44;;;13.59;100.00
63552;BME280;49698;48.072;7.800;2023-04-28T05:50:51;99132.63;;;13.62;100.00
63552;BME280;49698;48.072;7.800;2023-04-28T05:53:20;99129.63;;;13.64;100.00
63552;BME280;49698;48.072;7.800;2023-04-28T05:55:49;99129.81;;;13.67;100.00
63552;BME280;49698;48.072;7.800;2023-04-28T05:58:19;99138.91;;;13.72;100.00
63552;BME280;49698;48.072;7.800;2023-04-28T06:00:47;99143.97;;;13.73;100.00
63552;BME280;49698;48.072;7.800;2023-04-28T06:03:16;99144.31;;;13.72;100.00
63552;BME280;49698;48.072;7.800;2023-04-28T06:05:45;99142.22;;;13.68;100.00
63552;BME280;49698;48.072;7.800;2023-04-28T06:08:14;99143.63;;;13.66;100.00
63552;BME280;49698;48.072;7.800;2023-04-28T06:10:44;99145.84;;;13.64;100.00
63552;BME280;49698;48.072;7.800;2023-04-28T06:13:12;99154.06;;;13.59;100.00
63552;BME280;49698;48.072;7.800;2023-04-28T06:15:40;99143.91;;;13.56;100.00
63552;BME280;49698;48.072;7.800;2023-04-28T06:18:08;99145.63;;;13.52;100.00
63552;BME280;49698;48.072;7.800;2023-04-28T06:20:36;99147.34;;;13.48;100.00
63552;BME280;49698;48.072;7.800;2023-04-28T06:23:04;99142.56;;;13.44;100.00
63552;BME280;49698;48.072;7.800;2023-04-28T06:25:41;99157.78;;;13.40;100.00
63552;BME280;49698;48.072;7.800;2023-04-28T06:28:10;99148.38;;;13.38;100.00
63552;BME280;49698;48.072;7.800;2023-04-28T06:30:40;99149.78;;;13.35;100.00
63552;BME280;49698;48.072;7.800;2023-04-28T06:33:08;99144.38;;;13.35;100.00
63552;BME280;49698;48.072;7.800;2023-04-28T06:35:38;99146.59;;;13.33;100.00
63552;BME280;49698;48.072;7.800;2023-04-28T06:38:06;99154.69;;;13.33;100.00
63552;BME280;49698;48.072;7.800;2023-04-28T06:40:35;99138.78;;;13.32;100.00
63552;BME280;49698;48.072;7.800;2023-04-28T06:43:05;99151.81;;;13.30;100.00
63552;BME280;49698;48.072;7.800;2023-04-28T06:45:39;99174.00;;;13.27;100.00
63552;BME280;49698;48.072;7.800;2023-04-28T06:48:07;99170.00;;;13.24;100.00
63552;BME280;49698;48.072;7.800;2023-04-28T06:50:37;99173.31;;;13.21;100.00
63552;BME280;49698;48.072;7.800;2023-04-28T06:53:06;99181.50;;;13.16;100.00
63552;BME280;49698;48.072;7.800;2023-04-28T06:55:34;99172.44;;;13.12;100.00
63552;BME280;49698;48.072;7.800;2023-04-28T06:58:02;99184.47;;;13.06;100.00
63552;BME280;49698;48.072;7.800;2023-04-28T07:00:32;99174.75;;;13.05;100.00
63552;BME280;49698;48.072;7.800;2023-04-28T07:03:02;99182.34;;;13.03;100.00
63552;BME280;49698;48.072;7.800;2023-04-28T07:05:31;99183.47;;;13.02;100.00
63552;BME280;49698;48.072;7.800;2023-04-28T07:08:00;99178.06;;;13.02;100.00
63552;BME280;49698;48.072;7.800;2023-04-28T07:10:28;99190.44;;;13.03;100.00
63552;BME280;49698;48.072;7.800;2023-04-28T07:12:56;99185.06;;;13.03;100.00
63552;BME280;49698;48.072;7.800;2023-04-28T07:15:24;99186.03;;;13.07;100.00
63552;BME280;49698;48.072;7.800;2023-04-28T07:17:52;99185.44;;;13.10;100.00
63552;BME280;49698;48.072;7.800;2023-04-28T07:20:21;99193.41;;;13.15;100.00
63552;BME280;49698;48.072;7.800;2023-04-28T07:22:49;99192.22;;;13.21;100.00
63552;BME280;49698;48.072;7.800;2023-04-28T07:25:17;99185.91;;;13.26;100.00
63552;BME280;49698;48.072;7.800;2023-04-28T07:27:45;99187.38;;;13.32;100.00
63552;BME280;49698;48.072;7.800;2023-04-28T07:30:13;99186.47;;;13.36;100.00
63552;BME280;49698;48.072;7.800;2023-04-28T07:32:51;99173.97;;;13.40;100.00
63552;BME280;49698;48.072;7.800;2023-04-28T07:35:19;99187.34;;;13.45;100.00
63552;BME280;49698;48.072;7.800;2023-04-28T07:37:49;99178.63;;;13.49;100.00
63552;BME280;49698;48.072;7.800;2023-04-28T07:40:19;99182.13;;;13.49;100.00
63552;BME280;49698;48.072;7.800;2023-04-28T07:42:47;99186.13;;;13.52;100.00
63552;BME280;49698;48.072;7.800;2023-04-28T07:45:15;99189.63;;;13.52;100.00
63552;BME280;49698;48.072;7.800;2023-04-28T07:47:43;99185.47;;;13.55;100.00
63552;BME280;49698;48.072;7.800;2023-04-28T07:50:11;99182.78;;;13.55;100.00
63552;BME280;49698;48.072;7.800;2023-04-28T07:52:39;99187.09;;;13.56;100.00
63552;BME280;49698;48.072;7.800;2023-04-28T07:55:08;99188.69;;;13.57;100.00
63552;BME280;49698;48.072;7.800;2023-04-28T07:57:36;99187.56;;;13.58;100.00
63552;BME280;49698;48.072;7.800;2023-04-28T08:00:05;99196.19;;;13.60;100.00
63552;BME280;49698;48.072;7.800;2023-04-28T08:02:42;99194.47;;;13.64;100.00
63552;BME280;49698;48.072;7.800;2023-04-28T08:05:10;99195.13;;;13.69;100.00
63552;BME280;49698;48.072;7.800;2023-04-28T08:07:38;99200.22;;;13.71;100.00
63552;BME280;49698;48.072;7.800;2023-04-28T08:10:09;99211.03;;;13.71;100.00
63552;BME280;49698;48.072;7.800;2023-04-28T08:12:37;99209.91;;;13.72;100.00
63552;BME280;49698;48.072;7.800;2023-04-28T08:15:08;99211.50;;;13.73;100.00
63552;BME280;49698;48.072;7.800;2023-04-28T08:17:36;99214.72;;;13.75;100.00
63552;BME280;49698;48.072;7.800;2023-04-28T08:20:05;99217.88;;;13.77;100.00
63552;BME280;49698;48.072;7.800;2023-04-28T08:22:34;99227.59;;;13.78;100.00
63552;BME280;49698;48.072;7.800;2023-04-28T08:25:02;99228.09;;;13.80;100.00
63552;BME280;49698;48.072;7.800;2023-04-28T08:27:31;99234.00;;;13.82;100.00
63552;BME280;49698;48.072;7.800;2023-04-28T08:29:59;99224.47;;;13.85;100.00
63552;BME280;49698;48.072;7.800;2023-04-28T08:32:28;99231.44;;;13.86;100.00
63552;BME280;49698;48.072;7.800;2023-04-28T08:34:55;99237.97;;;13.85;100.00
63552;BME280;49698;48.072;7.800;2023-04-28T08:37:25;99243.38;;;13.85;100.00
63552;BME280;49698;48.072;7.800;2023-04-28T08:39:53;99243.38;;;13.85;100.00
63552;BME280;49698;48.072;7.800;2023-04-28T08:42:28;99247.97;;;13.84;100.00
63552;BME280;49698;48.072;7.800;2023-04-28T08:44:58;99246.38;;;13.83;100.00
63552;BME280;49698;48.072;7.800;2023-04-28T08:47:32;99250.69;;;13.84;100.00
63552;BME280;49698;48.072;7.800;2023-04-28T08:50:02;99244.16;;;13.85;100.00
63552;BME280;49698;48.072;7.800;2023-04-28T08:52:31;99225.13;;;13.90;100.00
63552;BME280;49698;48.072;7.800;2023-04-28T08:55:05;99221.97;;;13.97;100.00
63552;BME280;49698;48.072;7.800;2023-04-28T08:57:37;99212.97;;;14.02;100.00
63552;BME280;49698;48.072;7.800;2023-04-28T09:00:08;99222.84;;;14.06;100.00
63552;BME280;49698;48.072;7.800;2023-04-28T09:02:36;99219.22;;;14.11;100.00
63552;BME280;49698;48.072;7.800;2023-04-28T09:05:07;99237.97;;;14.16;100.00
63552;BME280;49698;48.072;7.800;2023-04-28T09:07:36;99241.47;;;14.16;100.00
63552;BME280;49698;48.072;7.800;2023-04-28T09:10:15;99251.50;;;14.16;100.00
63552;BME280;49698;48.072;7.800;2023-04-28T09:12:43;99254.19;;;14.16;100.00
63552;BME280;49698;48.072;7.800;2023-04-28T09:15:29;99250.09;;;14.18;100.00
63552;BME280;49698;48.072;7.800;2023-04-28T09:18:00;99260.59;;;14.20;100.00
63552;BME280;49698;48.072;7.800;2023-04-28T09:20:29;99265.38;;;14.23;100.00
63552;BME280;49698;48.072;7.800;2023-04-28T09:23:13;99269.66;;;14.24;100.00
63552;BME280;49698;48.072;7.800;2023-04-28T09:25:55;99271.28;;;14.25;100.00
63552;BME280;49698;48.072;7.800;2023-04-28T09:28:23;99270.16;;;14.26;100.00
63552;BME280;49698;48.072;7.800;2023-04-28T09:30:52;99274.78;;;14.26;100.00
63552;BME280;49698;48.072;7.800;2023-04-28T09:33:20;99270.16;;;14.26;100.00
63552;BME280;49698;48.072;7.800;2023-04-28T09:35:48;99267.94;;;14.28;100.00
63552;BME280;49698;48.072;7.800;2023-04-28T09:38:18;99266.84;;;14.29;100.00
63552;BME280;49698;48.072;7.800;2023-04-28T09:40:52;99266.22;;;14.32;100.00
63552;BME280;49698;48.072;7.800;2023-04-28T09:43:25;99272.13;;;14.34;100.00
63552;BME280;49698;48.072;7.800;2023-04-28T09:46:02;99268.19;;;14.40;100.00
63552;BME280;49698;48.072;7.800;2023-04-28T09:48:32;99260.41;;;14.48;100.00
63552;BME280;49698;48.072;7.800;2023-04-28T09:51:01;99271.59;;;14.55;100.00
63552;BME280;49698;48.072;7.800;2023-04-28T09:53:29;99263.38;;;14.60;100.00
63552;BME280;49698;48.072;7.800;2023-04-28T09:55:58;99270.72;;;14.68;100.00
63552;BME280;49698;48.072;7.800;2023-04-28T09:58:28;99268.03;;;14.77;100.00
63552;BME280;49698;48.072;7.800;2023-04-28T10:01:00;99274.06;;;14.82;100.00
63552;BME280;49698;48.072;7.800;2023-04-28T10:03:29;99278.56;;;14.87;100.00
63552;BME280;49698;48.072;7.800;2023-04-28T10:05:58;99265.19;;;14.90;100.00
63552;BME280;49698;48.072;7.800;2023-04-28T10:08:26;99270.16;;;14.97;100.00
63552;BME280;49698;48.072;7.800;2023-04-28T10:10:54;99270.31;;;15.09;100.00
63552;BME280;49698;48.072;7.800;2023-04-28T10:13:23;99276.41;;;15.24;100.00
63552;BME280;49698;48.072;7.800;2023-04-28T10:15:51;99265.91;;;15.39;100.00
63552;BME280;49698;48.072;7.800;2023-04-28T10:18:22;99269.09;;;15.59;100.00
63552;BME280;49698;48.072;7.800;2023-04-28T10:20:54;99266.59;;;15.80;99.80
63552;BME280;49698;48.072;7.800;2023-04-28T10:29:22;99262.34;;;16.26;96.79
63552;BME280;49698;48.072;7.800;2023-04-28T10:32:19;99264.41;;;16.29;96.80
63552;BME280;49698;48.072;7.800;2023-04-28T10:34:50;99257.84;;;16.38;96.43
63552;BME280;49698;48.072;7.800;2023-04-28T10:37:18;99253.81;;;16.45;95.91
63552;BME280;49698;48.072;7.800;2023-04-28T10:42:52;99251.19;;;16.66;95.09
63552;BME280;49698;48.072;7.800;2023-04-28T10:48:54;99247.25;;;16.93;93.65
63552;BME280;49698;48.072;7.800;2023-04-28T10:51:27;99243.19;;;16.99;92.77
63552;BME280;49698;48.072;7.800;2023-04-28T10:54:08;99241.69;;;17.10;92.11
63552;BME280;49698;48.072;7.800;2023-04-28T10:56:36;99249.13;;;17.22;91.66
63552;BME280;49698;48.072;7.800;2023-04-28T10:59:23;99250.47;;;17.36;90.39
63552;BME280;49698;48.072;7.800;2023-04-28T11:01:52;99241.31;;;17.41;89.84
63552;BME280;49698;48.072;7.800;2023-04-28T11:04:20;99254.81;;;17.50;89.80
63552;BME280;49698;48.072;7.800;2023-04-28T11:07:09;99247.66;;;17.66;89.18
63552;BME280;49698;48.072;7.800;2023-04-28T11:09:48;99244.38;;;17.81;88.16
63552;BME280;49698;48.072;7.800;2023-04-28T11:12:16;99243.25;;;17.95;87.42
63552;BME280;49698;48.072;7.800;2023-04-28T11:14:44;99237.66;;;18.12;87.05
63552;BME280;49698;48.072;7.800;2023-04-28T11:17:12;99238.34;;;18.33;86.48
63552;BME280;49698;48.072;7.800;2023-04-28T11:19:44;99235.09;;;18.52;85.35
63552;BME280;49698;48.072;7.800;2023-04-28T11:22:17;99236.00;;;18.69;84.43
63552;BME280;49698;48.072;7.800;2023-04-28T11:24:55;99229.00;;;18.80;84.18
63552;BME280;49698;48.072;7.800;2023-04-28T11:27:24;99221.41;;;18.86;83.59
63552;BME280;49698;48.072;7.800;2023-04-28T11:29:52;99223.38;;;19.01;83.81
63552;BME280;49698;48.072;7.800;2023-04-28T11:32:25;99220.63;;;19.25;82.86
63552;BME280;49698;48.072;7.800;2023-04-28T11:34:54;99227.47;;;19.47;81.62
63552;BME280;49698;48.072;7.800;2023-04-28T11:37:24;99222.69;;;19.57;80.48
63552;BME280;49698;48.072;7.800;2023-04-28T11:39:53;99229.47;;;19.75;80.41
63552;BME280;49698;48.072;7.800;2023-04-28T11:42:21;99220.72;;;20.13;78.55
63552;BME280;49698;48.072;7.800;2023-04-28T11:44:52;99209.91;;;20.48;76.60
63552;BME280;49698;48.072;7.800;2023-04-28T11:47:31;99210.00;;;20.68;75.37
63552;BME280;49698;48.072;7.800;2023-04-28T11:49:59;99213.94;;;20.70;74.32
63552;BME280;49698;48.072;7.800;2023-04-28T11:52:30;99199.00;;;20.64;74.60
63552;BME280;49698;48.072;7.800;2023-04-28T11:54:58;99196.88;;;20.58;74.80
63552;BME280;49698;48.072;7.800;2023-04-28T11:57:28;99197.97;;;20.53;74.91
63552;BME280;49698;48.072;7.800;2023-04-28T12:00:11;99198.56;;;20.62;74.75
63552;BME280;49698;48.072;7.800;2023-04-28T12:02:40;99190.25;;;20.74;74.94
63552;BME280;49698;48.072;7.800;2023-04-28T12:05:09;99179.66;;;20.89;73.55
63552;BME280;49698;48.072;7.800;2023-04-28T12:07:42;99184.13;;;21.16;72.78
63552;BME280;49698;48.072;7.800;2023-04-28T12:10:12;99176.25;;;21.50;71.84
63552;BME280;49698;48.072;7.800;2023-04-28T12:12:41;99173.97;;;21.75;71.13
63552;BME280;49698;48.072;7.800;2023-04-28T12:15:15;99180.25;;;21.76;70.56
63552;BME280;49698;48.072;7.800;2023-04-28T12:17:43;99169.47;;;21.63;70.46
63552;BME280;49698;48.072;7.800;2023-04-28T12:20:35;99189.94;;;21.50;70.81
63552;BME280;49698;48.072;7.800;2023-04-28T12:23:04;99180.50;;;21.47;71.27
63552;BME280;49698;48.072;7.800;2023-04-28T12:25:42;99177.28;;;21.42;71.10
63552;BME280;49698;48.072;7.800;2023-04-28T12:28:10;99170.13;;;21.37;71.30
63552;BME280;49698;48.072;7.800;2023-04-28T12:30:38;99172.19;;;21.24;71.65
63552;BME280;49698;48.072;7.800;2023-04-28T12:33:20;99165.94;;;21.24;71.88
63552;BME280;49698;48.072;7.800;2023-04-28T12:35:49;99172.03;;;21.17;72.20
63552;BME280;49698;48.072;7.800;2023-04-28T12:38:18;99173.03;;;20.90;71.78
63552;BME280;49698;48.072;7.800;2023-04-28T12:40:46;99162.22;;;20.77;72.61
63552;BME280;49698;48.072;7.800;2023-04-28T12:43:14;99159.50;;;20.77;72.58
63552;BME280;49698;48.072;7.800;2023-04-28T12:45:42;99157.53;;;20.78;72.25
63552;BME280;49698;48.072;7.800;2023-04-28T12:48:10;99151.59;;;20.72;72.28
63552;BME280;49698;48.072;7.800;2023-04-28T12:50:38;99139.47;;;20.54;72.45
63552;BME280;49698;48.072;7.800;2023-04-28T12:53:06;99146.16;;;20.41;73.85
63552;BME280;49698;48.072;7.800;2023-04-28T12:55:35;99159.97;;;20.32;73.82
63552;BME280;49698;48.072;7.800;2023-04-28T12:58:04;99161.66;;;20.21;74.07
63552;BME280;49698;48.072;7.800;2023-04-28T13:00:32;99154.69;;;20.08;74.48
63552;BME280;49698;48.072;7.800;2023-04-28T13:03:00;99153.13;;;20.07;74.06
63552;BME280;49698;48.072;7.800;2023-04-28T13:05:30;99152.16;;;20.31;73.40
63552;BME280;49698;48.072;7.800;2023-04-28T13:07:58;99152.13;;;20.62;72.67
63552;BME280;49698;48.072;7.800;2023-04-28T13:10:26;99140.91;;;20.83;70.72
63552;BME280;49698;48.072;7.800;2023-04-28T13:12:56;99147.59;;;21.05;69.79
63552;BME280;49698;48.072;7.800;2023-04-28T13:15:24;99136.09;;;21.15;69.88
63552;BME280;49698;48.072;7.800;2023-04-28T13:17:52;99138.53;;;21.20;69.54
63552;BME280;49698;48.072;7.800;2023-04-28T13:20:20;99135.09;;;21.23;69.76
63552;BME280;49698;48.072;7.800;2023-04-28T13:22:48;99127.09;;;21.15;69.76